sensor_id;sensor_type;location;lat;lon;timestamp;P1;durP1;ratioP1;P2;durP2;ratioP2
45114;SDS011;30877;43.706;10.780;2022-12-18T00:01:38;8.60;;;5.55;;
45114;SDS011;30877;43.706;10.780;2022-12-18T00:04:12;8.15;;;5.90;;
45114;SDS011;30877;43.706;10.780;2022-12-18T00:06:48;8.10;;;5.00;;
45114;SDS011;30877;43.706;10.780;2022-12-18T00:09:19;9.52;;;5.43;;
45114;SDS011;30877;43.706;10.780;2022-12-18T00:11:51;7.22;;;5.15;;
45114;SDS011;30877;43.706;10.780;2022-12-18T00:14:22;7.78;;;5.47;;
45114;SDS011;30877;43.706;10.780;2022-12-18T00:16:50;11.30;;;8.73;;
45114;SDS011;30877;43.706;10.780;2022-12-18T00:19:19;12.50;;;7.32;;
45114;SDS011;30877;43.706;10.780;2022-12-18T00:21:47;11.35;;;6.35;;
45114;SDS011;30877;43.706;10.780;2022-12-18T00:24:15;8.57;;;6.22;;
45114;SDS011;30877;43.706;10.780;2022-12-18T00:26:46;7.35;;;6.32;;
45114;SDS011;30877;43.706;10.780;2022-12-18T00:29:14;8.70;;;5.43;;
45114;SDS011;30877;43.706;10.780;2022-12-18T00:31:42;9.95;;;6.05;;
45114;SDS011;30877;43.706;10.780;2022-12-18T00:34:11;8.00;;;5.03;;
45114;SDS011;30877;43.706;10.780;2022-12-18T00:36:40;9.25;;;6.03;;
45114;SDS011;30877;43.706;10.780;2022-12-18T00:39:09;12.70;;;7.30;;
45114;SDS011;30877;43.706;10.780;2022-12-18T00:41:54;13.90;;;7.65;;
45114;SDS011;30877;43.706;10.780;2022-12-18T00:44:42;13.50;;;6.80;;
45114;SDS011;30877;43.706;10.780;2022-12-18T00:47:10;10.27;;;5.75;;
45114;SDS011;30877;43.706;10.780;2022-12-18T00:49:38;7.25;;;4.60;;
45114;SDS011;30877;43.706;10.780;2022-12-18T00:52:06;12.02;;;6.00;;
45114;SDS011;30877;43.706;10.780;2022-12-18T00:54:34;8.75;;;5.90;;
45114;SDS011;30877;43.706;10.780;2022-12-18T00:57:03;10.55;;;6.35;;
45114;SDS011;30877;43.706;10.780;2022-12-18T00:59:31;10.02;;;6.45;;
45114;SDS011;30877;43.706;10.780;2022-12-18T01:01:59;12.13;;;6.63;;
45114;SDS011;30877;43.706;10.780;2022-12-18T01:04:31;8.63;;;6.00;;
45114;SDS011;30877;43.706;10.780;2022-12-18T01:07:00;10.45;;;6.45;;
45114;SDS011;30877;43.706;10.780;2022-12-18T01:09:28;12.57;;;7.07;;
45114;SDS011;30877;43.706;10.780;2022-12-18T01:11:56;9.32;;;6.10;;
45114;SDS011;30877;43.706;10.780;2022-12-18T01:14:26;10.43;;;6.60;;
45114;SDS011;30877;43.706;10.780;2022-12-18T01:16:54;10.27;;;6.38;;
45114;SDS011;30877;43.706;10.780;2022-12-18T01:19:22;10.43;;;6.68;;
45114;SDS011;30877;43.706;10.780;2022-12-18T01:21:50;11.52;;;6.88;;
45114;SDS011;30877;43.706;10.780;2022-12-18T01:24:18;10.68;;;6.72;;
45114;SDS011;30877;43.706;10.780;2022-12-18T01:26:48;12.30;;;6.97;;
45114;SDS011;30877;43.706;10.780;2022-12-18T01:29:16;12.57;;;7.57;;
45114;SDS011;30877;43.706;10.780;2022-12-18T01:31:45;8.85;;;6.07;;
45114;SDS011;30877;43.706;10.780;2022-12-18T01:34:13;9.95;;;6.18;;
45114;SDS011;30877;43.706;10.780;2022-12-18T01:36:41;6.57;;;4.72;;
45114;SDS011;30877;43.706;10.780;2022-12-18T01:39:10;5.85;;;4.18;;
45114;SDS011;30877;43.706;10.780;2022-12-18T01:41:41;7.22;;;4.72;;
45114;SDS011;30877;43.706;10.780;2022-12-18T01:47:48;6.30;;;3.88;;
45114;SDS011;30877;43.706;10.780;2022-12-18T01:50:19;5.35;;;3.78;;
45114;SDS011;30877;43.706;10.780;2022-12-18T01:52:49;6.47;;;4.10;;
45114;SDS011;30877;43.706;10.780;2022-12-18T01:55:20;7.32;;;3.60;;
45114;SDS011;30877;43.706;10.780;2022-12-18T01:57:52;5.28;;;4.05;;
45114;SDS011;30877;43.706;10.780;2022-12-18T02:00:22;5.00;;;3.33;;
45114;SDS011;30877;43.706;10.780;2022-12-18T02:02:53;5.15;;;3.42;;
45114;SDS011;30877;43.706;10.780;2022-12-18T02:05:26;6.72;;;3.58;;
45114;SDS011;30877;43.706;10.780;2022-12-18T02:08:05;5.45;;;3.17;;
45114;SDS011;30877;43.706;10.780;2022-12-18T02:10:41;4.57;;;3.40;;
45114;SDS011;30877;43.706;10.780;2022-12-18T02:13:16;5.78;;;3.15;;
45114;SDS011;30877;43.706;10.780;2022-12-18T02:15:51;4.25;;;3.00;;
45114;SDS011;30877;43.706;10.780;2022-12-18T02:18:30;4.63;;;3.25;;
45114;SDS011;30877;43.706;10.780;2022-12-18T02:21:04;5.05;;;3.20;;
45114;SDS011;30877;43.706;10.780;2022-12-18T02:23:47;4.22;;;2.63;;
45114;SDS011;30877;43.706;10.780;2022-12-18T02:26:27;5.68;;;3.47;;
45114;SDS011;30877;43.706;10.780;2022-12-18T02:28:59;5.28;;;3.35;;
45114;SDS011;30877;43.706;10.780;2022-12-18T02:31:34;3.78;;;3.25;;
45114;SDS011;30877;43.706;10.780;2022-12-18T02:34:06;5.05;;;2.97;;
45114;SDS011;30877;43.706;10.780;2022-12-18T02:36:38;5.80;;;3.60;;
45114;SDS011;30877;43.706;10.780;2022-12-18T02:39:10;4.82;;;3.75;;
45114;SDS011;30877;43.706;10.780;2022-12-18T02:41:53;4.72;;;3.67;;
45114;SDS011;30877;43.706;10.780;2022-12-18T02:44:28;11.55;;;4.55;;
45114;SDS011;30877;43.706;10.780;2022-12-18T02:46:57;4.85;;;3.60;;
45114;SDS011;30877;43.706;10.780;2022-12-18T02:49:28;5.82;;;4.13;;
45114;SDS011;30877;43.706;10.780;2022-12-18T02:52:04;5.10;;;3.63;;
45114;SDS011;30877;43.706;10.780;2022-12-18T02:54:39;5.65;;;3.80;;
45114;SDS011;30877;43.706;10.780;2022-12-18T02:57:23;5.47;;;3.78;;
45114;SDS011;30877;43.706;10.780;2022-12-18T03:00:00;6.07;;;4.80;;
45114;SDS011;30877;43.706;10.780;2022-12-18T03:02:33;4.97;;;4.45;;
45114;SDS011;30877;43.706;10.780;2022-12-18T03:05:06;7.13;;;5.20;;
45114;SDS011;30877;43.706;10.780;2022-12-18T03:07:41;6.00;;;5.10;;
45114;SDS011;30877;43.706;10.780;2022-12-18T03:10:14;7.15;;;4.60;;
45114;SDS011;30877;43.706;10.780;2022-12-18T03:12:49;5.75;;;5.10;;
45114;SDS011;30877;43.706;10.780;2022-12-18T03:15:22;7.90;;;5.47;;
45114;SDS011;30877;43.706;10.780;2022-12-18T03:18:02;6.70;;;4.95;;
45114;SDS011;30877;43.706;10.780;2022-12-18T03:20:34;7.47;;;5.30;;
45114;SDS011;30877;43.706;10.780;2022-12-18T03:23:04;6.70;;;5.00;;
45114;SDS011;30877;43.706;10.780;2022-12-18T03:25:37;7.57;;;5.60;;
45114;SDS011;30877;43.706;10.780;2022-12-18T03:28:09;7.90;;;5.40;;
45114;SDS011;30877;43.706;10.780;2022-12-18T03:30:42;9.38;;;5.97;;
45114;SDS011;30877;43.706;10.780;2022-12-18T03:33:14;6.78;;;5.13;;
45114;SDS011;30877;43.706;10.780;2022-12-18T03:35:48;8.20;;;5.47;;
45114;SDS011;30877;43.706;10.780;2022-12-18T03:38:17;6.50;;;4.55;;
45114;SDS011;30877;43.706;10.780;2022-12-18T03:40:53;6.93;;;5.40;;
45114;SDS011;30877;43.706;10.780;2022-12-18T03:43:34;7.97;;;5.18;;
45114;SDS011;30877;43.706;10.780;2022-12-18T03:46:11;7.93;;;5.65;;
45114;SDS011;30877;43.706;10.780;2022-12-18T03:48:49;6.55;;;5.13;;
45114;SDS011;30877;43.706;10.780;2022-12-18T03:51:25;10.05;;;6.32;;
45114;SDS011;30877;43.706;10.780;2022-12-18T03:53:58;8.50;;;5.38;;
45114;SDS011;30877;43.706;10.780;2022-12-18T03:56:32;10.13;;;6.10;;
45114;SDS011;30877;43.706;10.780;2022-12-18T03:59:06;6.75;;;5.22;;
45114;SDS011;30877;43.706;10.780;2022-12-18T04:01:39;8.23;;;5.75;;
45114;SDS011;30877;43.706;10.780;2022-12-18T04:04:11;9.38;;;6.05;;
45114;SDS011;30877;43.706;10.780;2022-12-18T04:06:43;6.78;;;5.45;;
45114;SDS011;30877;43.706;10.780;2022-12-18T04:09:13;7.88;;;5.47;;
45114;SDS011;30877;43.706;10.780;2022-12-18T04:11:46;7.57;;;5.63;;
45114;SDS011;30877;43.706;10.780;2022-12-18T04:14:17;10.43;;;5.53;;
45114;SDS011;30877;43.706;10.780;2022-12-18T04:16:49;6.93;;;6.22;;
45114;SDS011;30877;43.706;10.780;2022-12-18T04:19:22;8.00;;;5.85;;
45114;SDS011;30877;43.706;10.780;2022-12-18T04:21:52;7.70;;;5.47;;
45114;SDS011;30877;43.706;10.780;2022-12-18T04:24:20;9.18;;;5.57;;
45114;SDS011;30877;43.706;10.780;2022-12-18T04:27:08;7.70;;;5.60;;
45114;SDS011;30877;43.706;10.780;2022-12-18T04:29:44;6.60;;;5.07;;
45114;SDS011;30877;43.706;10.780;2022-12-18T04:32:14;8.02;;;5.65;;
45114;SDS011;30877;43.706;10.780;2022-12-18T04:34:43;8.40;;;5.45;;
45114;SDS011;30877;43.706;10.780;2022-12-18T04:37:12;7.20;;;5.45;;
45114;SDS011;30877;43.706;10.780;2022-12-18T04:39:41;7.25;;;5.75;;
45114;SDS011;30877;43.706;10.780;2022-12-18T04:42:17;8.40;;;6.05;;
45114;SDS011;30877;43.706;10.780;2022-12-18T04:44:47;6.40;;;5.18;;
45114;SDS011;30877;43.706;10.780;2022-12-18T04:47:15;7.18;;;5.28;;
45114;SDS011;30877;43.706;10.780;2022-12-18T04:49:44;8.15;;;6.13;;
45114;SDS011;30877;43.706;10.780;2022-12-18T04:52:12;8.40;;;5.57;;
45114;SDS011;30877;43.706;10.780;2022-12-18T04:54:40;8.48;;;6.20;;
45114;SDS011;30877;43.706;10.780;2022-12-18T04:57:08;7.88;;;5.65;;
45114;SDS011;30877;43.706;10.780;2022-12-18T04:59:36;6.00;;;5.03;;
45114;SDS011;30877;43.706;10.780;2022-12-18T05:02:06;8.38;;;5.65;;
45114;SDS011;30877;43.706;10.780;2022-12-18T05:04:34;6.55;;;5.35;;
45114;SDS011;30877;43.706;10.780;2022-12-18T05:07:02;9.07;;;5.15;;
45114;SDS011;30877;43.706;10.780;2022-12-18T05:09:32;7.68;;;5.75;;
45114;SDS011;30877;43.706;10.780;2022-12-18T05:12:01;7.63;;;4.97;;
45114;SDS011;30877;43.706;10.780;2022-12-18T05:14:30;7.80;;;5.57;;
45114;SDS011;30877;43.706;10.780;2022-12-18T05:16:58;7.47;;;5.13;;
45114;SDS011;30877;43.706;10.780;2022-12-18T05:19:28;6.75;;;5.55;;
45114;SDS011;30877;43.706;10.780;2022-12-18T05:21:56;7.03;;;5.60;;
45114;SDS011;30877;43.706;10.780;2022-12-18T05:24:24;8.18;;;5.88;;
45114;SDS011;30877;43.706;10.780;2022-12-18T05:26:52;10.15;;;6.68;;
45114;SDS011;30877;43.706;10.780;2022-12-18T05:29:20;10.77;;;7.13;;
45114;SDS011;30877;43.706;10.780;2022-12-18T05:31:49;9.52;;;6.97;;
45114;SDS011;30877;43.706;10.780;2022-12-18T05:34:17;8.50;;;6.72;;
45114;SDS011;30877;43.706;10.780;2022-12-18T05:36:47;10.10;;;6.90;;
45114;SDS011;30877;43.706;10.780;2022-12-18T05:39:15;7.07;;;6.38;;
45114;SDS011;30877;43.706;10.780;2022-12-18T05:41:43;9.10;;;6.40;;
45114;SDS011;30877;43.706;10.780;2022-12-18T05:44:11;8.80;;;6.72;;
45114;SDS011;30877;43.706;10.780;2022-12-18T05:46:42;8.18;;;6.13;;
45114;SDS011;30877;43.706;10.780;2022-12-18T05:49:10;7.97;;;6.35;;
45114;SDS011;30877;43.706;10.780;2022-12-18T05:51:38;9.88;;;6.35;;
45114;SDS011;30877;43.706;10.780;2022-12-18T05:54:08;8.93;;;6.35;;
45114;SDS011;30877;43.706;10.780;2022-12-18T05:56:36;8.20;;;6.00;;
45114;SDS011;30877;43.706;10.780;2022-12-18T05:59:11;8.60;;;7.00;;
45114;SDS011;30877;43.706;10.780;2022-12-18T06:01:39;7.97;;;6.45;;
45114;SDS011;30877;43.706;10.780;2022-12-18T06:04:08;9.43;;;6.10;;
45114;SDS011;30877;43.706;10.780;2022-12-18T06:06:37;7.50;;;6.00;;
45114;SDS011;30877;43.706;10.780;2022-12-18T06:09:05;6.70;;;5.90;;
45114;SDS011;30877;43.706;10.780;2022-12-18T06:11:37;7.18;;;5.72;;
45114;SDS011;30877;43.706;10.780;2022-12-18T06:14:06;7.80;;;6.03;;
45114;SDS011;30877;43.706;10.780;2022-12-18T06:16:34;8.23;;;6.20;;
45114;SDS011;30877;43.706;10.780;2022-12-18T06:19:03;10.18;;;6.05;;
45114;SDS011;30877;43.706;10.780;2022-12-18T06:21:32;8.55;;;5.75;;
45114;SDS011;30877;43.706;10.780;2022-12-18T06:24:00;8.75;;;5.95;;
45114;SDS011;30877;43.706;10.780;2022-12-18T06:26:30;10.43;;;6.70;;
45114;SDS011;30877;43.706;10.780;2022-12-18T06:28:58;7.38;;;5.72;;
45114;SDS011;30877;43.706;10.780;2022-12-18T06:31:27;7.53;;;6.28;;
45114;SDS011;30877;43.706;10.780;2022-12-18T06:33:56;7.57;;;5.70;;
45114;SDS011;30877;43.706;10.780;2022-12-18T06:36:25;6.65;;;5.32;;
45114;SDS011;30877;43.706;10.780;2022-12-18T06:39:06;7.47;;;6.13;;
45114;SDS011;30877;43.706;10.780;2022-12-18T06:41:37;8.40;;;5.43;;
45114;SDS011;30877;43.706;10.780;2022-12-18T06:44:05;10.48;;;6.40;;
45114;SDS011;30877;43.706;10.780;2022-12-18T06:46:34;8.95;;;6.20;;
45114;SDS011;30877;43.706;10.780;2022-12-18T06:49:03;9.38;;;6.75;;
45114;SDS011;30877;43.706;10.780;2022-12-18T06:51:31;10.25;;;7.70;;
45114;SDS011;30877;43.706;10.780;2022-12-18T06:54:00;9.98;;;7.25;;
45114;SDS011;30877;43.706;10.780;2022-12-18T06:56:28;9.38;;;7.50;;
45114;SDS011;30877;43.706;10.780;2022-12-18T06:58:59;12.57;;;7.95;;
45114;SDS011;30877;43.706;10.780;2022-12-18T07:01:28;12.50;;;7.63;;
45114;SDS011;30877;43.706;10.780;2022-12-18T07:03:57;12.27;;;8.63;;
45114;SDS011;30877;43.706;10.780;2022-12-18T07:06:25;11.57;;;8.00;;
45114;SDS011;30877;43.706;10.780;2022-12-18T07:08:54;13.52;;;7.60;;
45114;SDS011;30877;43.706;10.780;2022-12-18T07:11:22;10.27;;;6.80;;
45114;SDS011;30877;43.706;10.780;2022-12-18T07:13:52;11.60;;;7.10;;
45114;SDS011;30877;43.706;10.780;2022-12-18T07:16:22;9.30;;;6.43;;
45114;SDS011;30877;43.706;10.780;2022-12-18T07:18:52;9.90;;;6.72;;
45114;SDS011;30877;43.706;10.780;2022-12-18T07:21:21;7.93;;;5.72;;
45114;SDS011;30877;43.706;10.780;2022-12-18T07:23:50;9.68;;;7.60;;
45114;SDS011;30877;43.706;10.780;2022-12-18T07:26:19;10.18;;;7.78;;
45114;SDS011;30877;43.706;10.780;2022-12-18T07:28:48;10.43;;;7.43;;
45114;SDS011;30877;43.706;10.780;2022-12-18T07:31:18;12.57;;;8.80;;
45114;SDS011;30877;43.706;10.780;2022-12-18T07:33:50;11.13;;;7.75;;
45114;SDS011;30877;43.706;10.780;2022-12-18T07:36:23;10.18;;;7.55;;
45114;SDS011;30877;43.706;10.780;2022-12-18T07:38:51;9.85;;;7.35;;
45114;SDS011;30877;43.706;10.780;2022-12-18T07:41:20;13.63;;;9.45;;
45114;SDS011;30877;43.706;10.780;2022-12-18T07:43:48;10.75;;;7.80;;
45114;SDS011;30877;43.706;10.780;2022-12-18T07:46:17;8.93;;;7.05;;
45114;SDS011;30877;43.706;10.780;2022-12-18T07:48:46;9.32;;;6.43;;
45114;SDS011;30877;43.706;10.780;2022-12-18T07:51:18;9.35;;;7.18;;
45114;SDS011;30877;43.706;10.780;2022-12-18T07:53:46;18.00;;;12.50;;
45114;SDS011;30877;43.706;10.780;2022-12-18T07:56:18;12.98;;;9.23;;
45114;SDS011;30877;43.706;10.780;2022-12-18T07:58:57;12.05;;;8.77;;
45114;SDS011;30877;43.706;10.780;2022-12-18T08:01:27;12.27;;;8.75;;
45114;SDS011;30877;43.706;10.780;2022-12-18T08:03:56;11.57;;;8.32;;
45114;SDS011;30877;43.706;10.780;2022-12-18T08:06:28;10.13;;;7.82;;
45114;SDS011;30877;43.706;10.780;2022-12-18T08:08:59;10.13;;;7.70;;
45114;SDS011;30877;43.706;10.780;2022-12-18T08:11:28;14.15;;;10.50;;
45114;SDS011;30877;43.706;10.780;2022-12-18T08:13:57;14.23;;;10.27;;
45114;SDS011;30877;43.706;10.780;2022-12-18T08:16:25;13.27;;;9.55;;
45114;SDS011;30877;43.706;10.780;2022-12-18T08:18:54;12.57;;;9.50;;
45114;SDS011;30877;43.706;10.780;2022-12-18T08:21:24;12.00;;;7.75;;
45114;SDS011;30877;43.706;10.780;2022-12-18T08:23:56;12.02;;;8.35;;
45114;SDS011;30877;43.706;10.780;2022-12-18T08:26:28;10.27;;;8.30;;
45114;SDS011;30877;43.706;10.780;2022-12-18T08:28:58;10.82;;;8.40;;
45114;SDS011;30877;43.706;10.780;2022-12-18T08:31:27;12.25;;;7.72;;
45114;SDS011;30877;43.706;10.780;2022-12-18T08:33:56;10.50;;;6.97;;
45114;SDS011;30877;43.706;10.780;2022-12-18T08:36:24;9.40;;;7.30;;
45114;SDS011;30877;43.706;10.780;2022-12-18T08:38:55;9.68;;;7.00;;
45114;SDS011;30877;43.706;10.780;2022-12-18T08:41:24;9.23;;;6.95;;
45114;SDS011;30877;43.706;10.780;2022-12-18T08:43:52;8.98;;;6.82;;
45114;SDS011;30877;43.706;10.780;2022-12-18T08:46:39;8.25;;;6.80;;
45114;SDS011;30877;43.706;10.780;2022-12-18T08:49:09;7.65;;;6.07;;
45114;SDS011;30877;43.706;10.780;2022-12-18T08:51:38;9.15;;;6.13;;
45114;SDS011;30877;43.706;10.780;2022-12-18T08:54:09;7.30;;;5.20;;
45114;SDS011;30877;43.706;10.780;2022-12-18T08:56:39;6.80;;;5.00;;
45114;SDS011;30877;43.706;10.780;2022-12-18T08:59:08;6.47;;;5.15;;
45114;SDS011;30877;43.706;10.780;2022-12-18T09:01:45;7.55;;;6.15;;
45114;SDS011;30877;43.706;10.780;2022-12-18T09:04:13;5.55;;;4.43;;
45114;SDS011;30877;43.706;10.780;2022-12-18T09:06:41;4.85;;;4.03;;
45114;SDS011;30877;43.706;10.780;2022-12-18T09:09:12;8.13;;;4.85;;
45114;SDS011;30877;43.706;10.780;2022-12-18T09:11:40;5.85;;;4.60;;
45114;SDS011;30877;43.706;10.780;2022-12-18T09:14:08;4.68;;;4.18;;
45114;SDS011;30877;43.706;10.780;2022-12-18T09:16:37;6.05;;;4.20;;
45114;SDS011;30877;43.706;10.780;2022-12-18T09:19:05;6.13;;;4.05;;
45114;SDS011;30877;43.706;10.780;2022-12-18T09:21:34;6.03;;;4.38;;
45114;SDS011;30877;43.706;10.780;2022-12-18T09:24:03;6.95;;;5.00;;
45114;SDS011;30877;43.706;10.780;2022-12-18T09:26:36;10.13;;;5.80;;
45114;SDS011;30877;43.706;10.780;2022-12-18T09:29:05;7.38;;;4.95;;
45114;SDS011;30877;43.706;10.780;2022-12-18T09:31:34;7.13;;;5.03;;
45114;SDS011;30877;43.706;10.780;2022-12-18T09:34:07;5.35;;;4.85;;
45114;SDS011;30877;43.706;10.780;2022-12-18T09:36:35;6.38;;;4.82;;
45114;SDS011;30877;43.706;10.780;2022-12-18T09:39:03;6.78;;;4.60;;
45114;SDS011;30877;43.706;10.780;2022-12-18T09:41:41;6.57;;;4.45;;
45114;SDS011;30877;43.706;10.780;2022-12-18T09:44:22;6.15;;;4.07;;
45114;SDS011;30877;43.706;10.780;2022-12-18T09:47:09;5.95;;;4.35;;
45114;SDS011;30877;43.706;10.780;2022-12-18T09:49:42;5.85;;;4.38;;
45114;SDS011;30877;43.706;10.780;2022-12-18T09:52:12;5.35;;;3.92;;
45114;SDS011;30877;43.706;10.780;2022-12-18T09:54:46;6.13;;;4.50;;
45114;SDS011;30877;43.706;10.780;2022-12-18T09:57:21;6.72;;;4.35;;
45114;SDS011;30877;43.706;10.780;2022-12-18T09:59:53;5.68;;;4.72;;
45114;SDS011;30877;43.706;10.780;2022-12-18T10:02:24;6.95;;;4.43;;
45114;SDS011;30877;43.706;10.780;2022-12-18T10:04:57;7.00;;;4.38;;
45114;SDS011;30877;43.706;10.780;2022-12-18T10:07:49;4.72;;;3.53;;
45114;SDS011;30877;43.706;10.780;2022-12-18T10:10:25;4.30;;;3.70;;
45114;SDS011;30877;43.706;10.780;2022-12-18T10:13:02;4.93;;;3.85;;
45114;SDS011;30877;43.706;10.780;2022-12-18T10:15:46;6.63;;;3.70;;
45114;SDS011;30877;43.706;10.780;2022-12-18T10:18:24;4.55;;;3.60;;
45114;SDS011;30877;43.706;10.780;2022-12-18T10:21:03;6.25;;;4.20;;
45114;SDS011;30877;43.706;10.780;2022-12-18T10:23:38;4.95;;;3.65;;
45114;SDS011;30877;43.706;10.780;2022-12-18T10:26:14;6.40;;;3.75;;
45114;SDS011;30877;43.706;10.780;2022-12-18T10:28:44;5.00;;;3.75;;
45114;SDS011;30877;43.706;10.780;2022-12-18T10:31:14;4.93;;;3.70;;
45114;SDS011;30877;43.706;10.780;2022-12-18T10:33:44;5.07;;;3.70;;
45114;SDS011;30877;43.706;10.780;2022-12-18T10:36:12;4.97;;;3.65;;
45114;SDS011;30877;43.706;10.780;2022-12-18T10:38:41;5.82;;;4.40;;
45114;SDS011;30877;43.706;10.780;2022-12-18T10:41:22;5.53;;;4.40;;
45114;SDS011;30877;43.706;10.780;2022-12-18T10:46:49;4.78;;;3.38;;
45114;SDS011;30877;43.706;10.780;2022-12-18T10:49:23;4.63;;;3.85;;
45114;SDS011;30877;43.706;10.780;2022-12-18T10:52:04;6.75;;;4.32;;
45114;SDS011;30877;43.706;10.780;2022-12-18T10:54:39;4.65;;;3.90;;
45114;SDS011;30877;43.706;10.780;2022-12-18T10:57:17;5.03;;;3.95;;
45114;SDS011;30877;43.706;10.780;2022-12-18T11:00:00;4.20;;;3.40;;
45114;SDS011;30877;43.706;10.780;2022-12-18T11:02:47;8.82;;;3.50;;
45114;SDS011;30877;43.706;10.780;2022-12-18T11:05:23;4.32;;;3.85;;
45114;SDS011;30877;43.706;10.780;2022-12-18T11:07:54;4.95;;;3.38;;
45114;SDS011;30877;43.706;10.780;2022-12-18T11:10:22;5.80;;;3.50;;
45114;SDS011;30877;43.706;10.780;2022-12-18T11:12:55;4.28;;;3.03;;
45114;SDS011;30877;43.706;10.780;2022-12-18T11:15:37;4.47;;;3.63;;
45114;SDS011;30877;43.706;10.780;2022-12-18T11:18:15;4.43;;;3.08;;
45114;SDS011;30877;43.706;10.780;2022-12-18T11:20:50;4.72;;;3.80;;
45114;SDS011;30877;43.706;10.780;2022-12-18T11:23:25;4.32;;;3.65;;
45114;SDS011;30877;43.706;10.780;2022-12-18T11:25:55;4.05;;;3.60;;
45114;SDS011;30877;43.706;10.780;2022-12-18T11:28:25;4.38;;;3.70;;
45114;SDS011;30877;43.706;10.780;2022-12-18T11:31:15;5.22;;;3.75;;
45114;SDS011;30877;43.706;10.780;2022-12-18T11:33:47;4.82;;;3.50;;
45114;SDS011;30877;43.706;10.780;2022-12-18T11:36:49;3.85;;;2.80;;
45114;SDS011;30877;43.706;10.780;2022-12-18T11:39:19;3.50;;;2.40;;
45114;SDS011;30877;43.706;10.780;2022-12-18T11:41:58;13.32;;;4.70;;
45114;SDS011;30877;43.706;10.780;2022-12-18T11:44:39;9.75;;;4.10;;
45114;SDS011;30877;43.706;10.780;2022-12-18T11:47:15;8.35;;;4.13;;
45114;SDS011;30877;43.706;10.780;2022-12-18T11:49:52;6.05;;;3.80;;
45114;SDS011;30877;43.706;10.780;2022-12-18T11:52:24;6.53;;;3.85;;
45114;SDS011;30877;43.706;10.780;2022-12-18T11:54:58;5.03;;;3.15;;
45114;SDS011;30877;43.706;10.780;2022-12-18T11:57:34;4.22;;;3.17;;
45114;SDS011;30877;43.706;10.780;2022-12-18T12:00:10;3.70;;;3.20;;
45114;SDS011;30877;43.706;10.780;2022-12-18T12:05:41;4.72;;;2.72;;
45114;SDS011;30877;43.706;10.780;2022-12-18T12:08:20;3.45;;;2.50;;
45114;SDS011;30877;43.706;10.780;2022-12-18T12:11:02;4.20;;;3.40;;
45114;SDS011;30877;43.706;10.780;2022-12-18T12:13:40;3.50;;;2.95;;
45114;SDS011;30877;43.706;10.780;2022-12-18T12:16:17;5.13;;;3.45;;
45114;SDS011;30877;43.706;10.780;2022-12-18T12:18:54;3.25;;;2.80;;
45114;SDS011;30877;43.706;10.780;2022-12-18T12:21:31;4.80;;;2.67;;
45114;SDS011;30877;43.706;10.780;2022-12-18T12:24:11;3.55;;;2.63;;
45114;SDS011;30877;43.706;10.780;2022-12-18T12:26:55;3.65;;;2.78;;
45114;SDS011;30877;43.706;10.780;2022-12-18T12:29:37;3.00;;;2.42;;
45114;SDS011;30877;43.706;10.780;2022-12-18T12:32:19;4.95;;;2.95;;
45114;SDS011;30877;43.706;10.780;2022-12-18T12:35:02;3.10;;;2.40;;
45114;SDS011;30877;43.706;10.780;2022-12-18T12:37:44;2.78;;;2.50;;
45114;SDS011;30877;43.706;10.780;2022-12-18T12:40:22;3.58;;;2.90;;
45114;SDS011;30877;43.706;10.780;2022-12-18T12:43:20;3.15;;;2.40;;
45114;SDS011;30877;43.706;10.780;2022-12-18T12:45:53;2.67;;;2.10;;
45114;SDS011;30877;43.706;10.780;2022-12-18T12:48:32;5.88;;;2.13;;
45114;SDS011;30877;43.706;10.780;2022-12-18T12:51:09;4.57;;;2.25;;
45114;SDS011;30877;43.706;10.780;2022-12-18T12:56:12;3.10;;;2.10;;
45114;SDS011;30877;43.706;10.780;2022-12-18T12:58:48;2.72;;;2.17;;
45114;SDS011;30877;43.706;10.780;2022-12-18T13:01:25;3.78;;;2.13;;
45114;SDS011;30877;43.706;10.780;2022-12-18T13:04:05;3.13;;;2.47;;
45114;SDS011;30877;43.706;10.780;2022-12-18T13:06:45;2.85;;;2.20;;
45114;SDS011;30877;43.706;10.780;2022-12-18T13:09:17;3.20;;;1.40;;
45114;SDS011;30877;43.706;10.780;2022-12-18T13:11:46;3.33;;;1.58;;
45114;SDS011;30877;43.706;10.780;2022-12-18T13:14:33;2.53;;;1.58;;
45114;SDS011;30877;43.706;10.780;2022-12-18T13:17:16;3.42;;;2.30;;
45114;SDS011;30877;43.706;10.780;2022-12-18T13:22:46;2.22;;;1.73;;
45114;SDS011;30877;43.706;10.780;2022-12-18T13:25:29;2.47;;;1.77;;
45114;SDS011;30877;43.706;10.780;2022-12-18T13:28:01;3.00;;;2.25;;
45114;SDS011;30877;43.706;10.780;2022-12-18T13:30:43;2.75;;;2.05;;
45114;SDS011;30877;43.706;10.780;2022-12-18T13:36:33;2.83;;;2.00;;
45114;SDS011;30877;43.706;10.780;2022-12-18T13:39:24;3.00;;;2.17;;
45114;SDS011;30877;43.706;10.780;2022-12-18T13:45:35;4.13;;;2.13;;
45114;SDS011;30877;43.706;10.780;2022-12-18T13:48:18;1.98;;;1.50;;
45114;SDS011;30877;43.706;10.780;2022-12-18T13:50:52;2.72;;;1.52;;
45114;SDS011;30877;43.706;10.780;2022-12-18T13:53:26;7.20;;;1.42;;
45114;SDS011;30877;43.706;10.780;2022-12-18T13:56:00;3.60;;;2.15;;
45114;SDS011;30877;43.706;10.780;2022-12-18T13:58:29;1.75;;;1.40;;
45114;SDS011;30877;43.706;10.780;2022-12-18T14:00:57;2.95;;;1.80;;
45114;SDS011;30877;43.706;10.780;2022-12-18T14:03:27;2.67;;;1.75;;
45114;SDS011;30877;43.706;10.780;2022-12-18T14:05:58;3.53;;;2.30;;
45114;SDS011;30877;43.706;10.780;2022-12-18T14:08:32;3.03;;;2.42;;
45114;SDS011;30877;43.706;10.780;2022-12-18T14:11:05;3.00;;;2.15;;
45114;SDS011;30877;43.706;10.780;2022-12-18T14:13:37;5.38;;;2.30;;
45114;SDS011;30877;43.706;10.780;2022-12-18T14:16:11;2.97;;;1.98;;
45114;SDS011;30877;43.706;10.780;2022-12-18T14:18:44;4.13;;;2.40;;
45114;SDS011;30877;43.706;10.780;2022-12-18T14:21:18;4.30;;;2.22;;
45114;SDS011;30877;43.706;10.780;2022-12-18T14:23:49;3.33;;;2.03;;
45114;SDS011;30877;43.706;10.780;2022-12-18T14:26:32;3.28;;;1.98;;
45114;SDS011;30877;43.706;10.780;2022-12-18T14:29:09;5.93;;;4.03;;
45114;SDS011;30877;43.706;10.780;2022-12-18T14:34:43;5.55;;;3.78;;
45114;SDS011;30877;43.706;10.780;2022-12-18T14:37:13;5.20;;;3.22;;
45114;SDS011;30877;43.706;10.780;2022-12-18T14:39:53;3.97;;;2.50;;
45114;SDS011;30877;43.706;10.780;2022-12-18T14:42:25;2.80;;;2.15;;
45114;SDS011;30877;43.706;10.780;2022-12-18T14:48:08;3.92;;;2.40;;
45114;SDS011;30877;43.706;10.780;2022-12-18T14:50:54;5.88;;;2.88;;
45114;SDS011;30877;43.706;10.780;2022-12-18T14:53:28;2.88;;;2.08;;
45114;SDS011;30877;43.706;10.780;2022-12-18T14:56:02;3.90;;;2.30;;
45114;SDS011;30877;43.706;10.780;2022-12-18T14:58:39;5.10;;;2.55;;
45114;SDS011;30877;43.706;10.780;2022-12-18T15:01:17;3.80;;;2.17;;
45114;SDS011;30877;43.706;10.780;2022-12-18T15:03:46;3.72;;;2.25;;
45114;SDS011;30877;43.706;10.780;2022-12-18T15:06:15;6.65;;;4.13;;
45114;SDS011;30877;43.706;10.780;2022-12-18T15:08:44;5.10;;;3.47;;
45114;SDS011;30877;43.706;10.780;2022-12-18T15:11:29;5.90;;;3.75;;
45114;SDS011;30877;43.706;10.780;2022-12-18T15:16:58;5.97;;;4.60;;
45114;SDS011;30877;43.706;10.780;2022-12-18T15:19:31;8.90;;;6.30;;
45114;SDS011;30877;43.706;10.780;2022-12-18T15:22:02;12.85;;;8.20;;
45114;SDS011;30877;43.706;10.780;2022-12-18T15:24:32;17.50;;;11.00;;
45114;SDS011;30877;43.706;10.780;2022-12-18T15:27:00;14.65;;;9.20;;
45114;SDS011;30877;43.706;10.780;2022-12-18T15:29:30;9.85;;;7.00;;
45114;SDS011;30877;43.706;10.780;2022-12-18T15:31:58;8.10;;;5.78;;
45114;SDS011;30877;43.706;10.780;2022-12-18T15:34:30;7.60;;;4.38;;